createdAt,value
2023-03-30T00:00:09.854Z,948.8270
2023-03-30T00:00:21.038Z,953.5710
2023-03-30T00:00:32.252Z,956.9890
2023-03-30T00:00:43.437Z,948.1530
2023-03-30T00:00:54.662Z,946.8090
2023-03-30T00:01:06.250Z,956.3040
2023-03-30T00:01:17.731Z,951.5320
2023-03-30T00:01:28.785Z,953.5710
2023-03-30T00:01:39.835Z,952.2110
2023-03-30T00:01:50.884Z,950.8550
2023-03-30T00:02:01.969Z,950.8550
2023-03-30T00:02:13.075Z,949.5020
2023-03-30T00:02:24.255Z,954.9360
2023-03-30T00:02:35.496Z,948.8270
2023-03-30T00:02:46.602Z,950.8550
2023-03-30T00:02:57.821Z,950.8550
2023-03-30T00:03:09.191Z,954.2530
2023-03-30T00:03:20.654Z,956.3040
2023-03-30T00:03:31.897Z,953.5710
2023-03-30T00:03:43.302Z,949.5020
2023-03-30T00:03:54.721Z,954.2530
2023-03-30T00:04:06.275Z,950.8550
2023-03-30T00:04:17.721Z,954.2530
2023-03-30T00:04:29.172Z,958.3630
2023-03-30T00:04:40.375Z,950.1780
2023-03-30T00:04:51.569Z,950.1780
2023-03-30T00:05:02.733Z,952.8910
2023-03-30T00:05:14.091Z,953.5710
2023-03-30T00:05:25.400Z,953.5710
2023-03-30T00:05:36.439Z,948.1530
2023-03-30T00:05:47.499Z,953.5710
2023-03-30T00:05:58.639Z,950.8550
2023-03-30T00:06:09.880Z,954.9360
2023-03-30T00:06:21.121Z,955.6190
2023-03-30T00:06:32.250Z,959.7410
2023-03-30T00:06:43.452Z,948.1530
2023-03-30T00:06:54.493Z,955.6190
2023-03-30T00:07:05.556Z,954.2530
2023-03-30T00:07:16.724Z,953.5710
2023-03-30T00:07:27.934Z,954.9360
2023-03-30T00:07:39.002Z,954.9360
2023-03-30T00:07:50.040Z,955.6190
2023-03-30T00:08:01.204Z,953.5710
2023-03-30T00:08:12.408Z,958.3630
2023-03-30T00:08:23.605Z,954.9360
2023-03-30T00:08:34.636Z,950.1780
2023-03-30T00:08:45.684Z,954.2530
2023-03-30T00:08:56.894Z,954.9360
2023-03-30T00:09:08.084Z,953.5710
2023-03-30T00:09:19.280Z,956.9890
2023-03-30T00:09:30.320Z,955.6190
2023-03-30T00:09:41.372Z,955.6190
2023-03-30T00:09:52.411Z,957.6760
2023-03-30T00:10:03.469Z,960.4320
2023-03-30T00:10:14.681Z,955.6190
2023-03-30T00:10:25.856Z,961.8160
2023-03-30T00:10:37.071Z,954.9360
2023-03-30T00:10:48.247Z,959.0520
2023-03-30T00:10:59.290Z,958.3630
2023-03-30T00:11:10.375Z,953.5710
2023-03-30T00:11:21.526Z,954.2530
2023-03-30T00:11:32.727Z,958.3630
2023-03-30T00:11:43.944Z,954.9360
2023-03-30T00:11:54.985Z,956.9890
2023-03-30T00:12:06.015Z,960.4320
2023-03-30T00:12:17.205Z,952.8910
2023-03-30T00:12:28.251Z,951.5320
2023-03-30T00:12:39.321Z,963.2030
2023-03-30T00:12:50.533Z,957.6760
2023-03-30T00:13:01.679Z,956.3040
2023-03-30T00:13:12.889Z,959.7410
2023-03-30T00:13:24.086Z,961.8160
2023-03-30T00:13:35.134Z,953.5710
2023-03-30T00:13:46.160Z,952.8910
2023-03-30T00:13:57.367Z,964.5950
2023-03-30T00:14:08.379Z,961.8160
2023-03-30T00:14:19.455Z,963.2030
2023-03-30T00:14:30.657Z,963.8990
2023-03-30T00:14:41.690Z,959.0520
2023-03-30T00:14:52.770Z,956.3040
2023-03-30T00:15:03.925Z,961.8160
2023-03-30T00:15:15.121Z,957.6760
2023-03-30T00:15:26.338Z,952.8910
2023-03-30T00:15:37.527Z,957.6760
2023-03-30T00:15:48.724Z,959.7410
2023-03-30T00:15:59.961Z,960.4320
2023-03-30T00:16:11.262Z,953.5710
2023-03-30T00:16:22.380Z,956.9890
2023-03-30T00:16:33.537Z,959.0520
2023-03-30T00:16:44.795Z,954.9360
2023-03-30T00:16:56.083Z,957.6760
2023-03-30T00:17:07.229Z,965.2930
2023-03-30T00:17:18.355Z,961.1230
2023-03-30T00:17:29.550Z,959.7410
2023-03-30T00:17:40.736Z,956.9890
2023-03-30T00:17:51.989Z,956.3040
2023-03-30T00:18:03.174Z,966.6910
2023-03-30T00:18:14.321Z,962.5090
2023-03-30T00:18:25.410Z,963.8990
2023-03-30T00:18:36.430Z,961.1230
2023-03-30T00:18:47.611Z,957.6760
2023-03-30T00:18:58.799Z,957.6760
2023-03-30T00:19:09.851Z,959.7410
2023-03-30T00:19:20.890Z,960.4320
2023-03-30T00:19:31.929Z,960.4320
2023-03-30T00:19:43.038Z,960.4320
2023-03-30T00:19:54.175Z,959.0520
2023-03-30T00:20:05.409Z,967.3910
2023-03-30T00:20:16.616Z,963.2030
2023-03-30T00:20:27.817Z,961.1230
2023-03-30T00:20:39.031Z,970.2030
2023-03-30T00:20:50.181Z,960.4320
2023-03-30T00:21:01.413Z,962.5090
2023-03-30T00:21:12.602Z,955.6190
2023-03-30T00:21:23.766Z,970.2030
2023-03-30T00:21:34.800Z,959.7410
2023-03-30T00:21:45.849Z,962.5090
2023-03-30T00:21:56.893Z,959.0520
2023-03-30T00:22:07.920Z,969.4990
2023-03-30T00:22:19.119Z,965.9910
2023-03-30T00:22:30.146Z,961.8160
2023-03-30T00:22:41.220Z,962.5090
2023-03-30T00:22:52.415Z,962.5090
2023-03-30T00:23:03.608Z,964.5950
2023-03-30T00:23:14.650Z,965.2930
2023-03-30T00:23:25.738Z,963.2030
2023-03-30T00:23:36.921Z,967.3910
2023-03-30T00:23:48.040Z,964.5950
2023-03-30T00:23:59.193Z,963.2030
2023-03-30T00:24:10.240Z,967.3910
2023-03-30T00:24:21.365Z,953.5710
2023-03-30T00:24:32.559Z,967.3910
2023-03-30T00:24:43.766Z,963.2030
2023-03-30T00:24:54.807Z,962.5090
2023-03-30T00:25:05.846Z,961.1230
2023-03-30T00:25:17.054Z,968.7950
2023-03-30T00:25:28.265Z,964.5950
2023-03-30T00:25:39.449Z,967.3910
2023-03-30T00:25:50.646Z,961.8160
2023-03-30T00:26:01.696Z,961.8160
2023-03-30T00:26:12.815Z,968.0930
2023-03-30T00:26:23.863Z,961.8160
2023-03-30T00:26:34.909Z,970.2030
2023-03-30T00:26:46.013Z,973.0320
2023-03-30T00:26:57.206Z,970.2030
2023-03-30T00:27:08.244Z,967.3910
2023-03-30T00:27:19.281Z,973.0320
2023-03-30T00:27:30.496Z,971.6160
2023-03-30T00:27:41.691Z,965.2930
2023-03-30T00:27:52.894Z,971.6160
2023-03-30T00:28:03.950Z,970.9090
2023-03-30T00:28:15.009Z,964.5950
2023-03-30T00:28:26.255Z,974.4530
2023-03-30T00:28:37.362Z,967.3910
2023-03-30T00:28:48.560Z,967.3910
2023-03-30T00:28:59.766Z,967.3910
2023-03-30T00:29:10.791Z,966.6910
2023-03-30T00:29:21.852Z,972.3230
2023-03-30T00:29:33.057Z,965.9910
2023-03-30T00:29:44.250Z,970.9090
2023-03-30T00:29:55.442Z,964.5950
2023-03-30T00:30:06.539Z,969.4990
2023-03-30T00:30:17.590Z,970.2030
2023-03-30T00:30:28.625Z,968.0930
2023-03-30T00:30:39.664Z,971.6160
2023-03-30T00:30:50.804Z,968.7950
2023-03-30T00:31:02.319Z,969.4990
2023-03-30T00:31:13.882Z,967.3910
2023-03-30T00:31:25.067Z,973.0320
2023-03-30T00:31:36.114Z,967.3910
2023-03-30T00:31:47.165Z,964.5950
2023-03-30T00:31:58.371Z,973.0320
2023-03-30T00:32:09.458Z,965.2930
2023-03-30T00:32:20.520Z,968.7950
2023-03-30T00:32:31.664Z,970.9090
2023-03-30T00:32:42.821Z,971.6160
2023-03-30T00:32:54.008Z,974.4530
2023-03-30T00:33:05.373Z,970.9090
2023-03-30T00:33:16.429Z,975.1640
2023-03-30T00:33:41.212Z,965.9910
2023-03-30T00:33:46.912Z,967.3910
2023-03-30T00:33:58.686Z,958.3630
2023-03-30T00:34:09.848Z,964.5950
2023-03-30T00:34:21.054Z,963.8990
2023-03-30T00:34:32.244Z,963.2030
2023-03-30T00:34:43.279Z,972.3230
2023-03-30T00:34:54.319Z,965.9910
2023-03-30T00:35:05.534Z,963.8990
2023-03-30T00:35:16.741Z,961.8160
2023-03-30T00:35:27.932Z,965.9910
2023-03-30T00:35:39.000Z,971.6160
2023-03-30T00:35:50.084Z,965.2930
2023-03-30T00:36:01.192Z,966.6910
2023-03-30T00:36:12.590Z,974.4530
2023-03-30T00:36:24.026Z,968.7950
2023-03-30T00:36:35.124Z,968.7950
2023-03-30T00:36:46.305Z,973.0320
2023-03-30T00:36:57.356Z,973.0320
2023-03-30T00:37:08.405Z,972.3230
2023-03-30T00:37:19.638Z,964.5950
2023-03-30T00:37:30.798Z,977.3060
2023-03-30T00:37:42.042Z,965.9910
2023-03-30T00:37:53.215Z,975.8770
2023-03-30T00:38:04.247Z,965.9910
2023-03-30T00:38:15.281Z,968.0930
2023-03-30T00:38:26.498Z,967.3910
2023-03-30T00:38:37.708Z,971.6160
2023-03-30T00:38:48.728Z,972.3230
2023-03-30T00:38:59.758Z,973.7420
2023-03-30T00:39:10.798Z,970.9090
2023-03-30T00:39:21.838Z,974.4530
2023-03-30T00:39:33.050Z,978.7390
2023-03-30T00:39:44.268Z,975.1640
2023-03-30T00:39:55.444Z,979.4570
2023-03-30T00:40:06.648Z,978.7390
2023-03-30T00:40:17.849Z,974.4530
2023-03-30T00:40:29.043Z,973.0320
2023-03-30T00:40:40.237Z,973.7420
2023-03-30T00:40:51.277Z,978.7390
2023-03-30T00:41:02.568Z,970.9090
2023-03-30T00:41:13.889Z,973.0320
2023-03-30T00:41:25.084Z,973.7420
2023-03-30T00:41:36.237Z,973.0320
2023-03-30T00:41:47.449Z,975.8770
2023-03-30T00:41:58.642Z,973.0320
2023-03-30T00:42:09.689Z,970.2030
2023-03-30T00:42:20.727Z,975.1640
2023-03-30T00:42:31.932Z,973.0320
2023-03-30T00:42:43.137Z,979.4570
2023-03-30T00:42:54.188Z,973.0320
2023-03-30T00:43:05.230Z,981.6180
2023-03-30T00:43:16.291Z,973.7420
2023-03-30T00:43:27.348Z,975.1640
2023-03-30T00:43:38.479Z,978.0220
2023-03-30T00:43:49.525Z,975.8770
2023-03-30T00:44:00.574Z,977.3060
2023-03-30T00:44:11.756Z,976.5910
2023-03-30T00:44:22.797Z,975.1640
2023-03-30T00:44:33.847Z,973.0320
2023-03-30T00:44:44.890Z,978.7390
2023-03-30T00:44:55.917Z,975.8770
2023-03-30T00:45:07.133Z,974.4530
2023-03-30T00:45:18.348Z,973.0320
2023-03-30T00:45:29.385Z,973.0320
2023-03-30T00:45:40.492Z,977.3060
2023-03-30T00:45:51.642Z,979.4570
2023-03-30T00:46:02.821Z,970.9090
2023-03-30T00:46:13.900Z,977.3060
2023-03-30T00:46:24.973Z,983.0630
2023-03-30T00:46:36.127Z,978.7390
2023-03-30T00:46:47.277Z,983.7880
2023-03-30T00:46:58.494Z,977.3060
2023-03-30T00:47:09.682Z,973.0320
2023-03-30T00:47:20.882Z,981.6180
2023-03-30T00:47:32.087Z,983.7880
2023-03-30T00:47:43.189Z,980.8960
2023-03-30T00:47:54.284Z,976.5910
2023-03-30T00:48:05.482Z,974.4530
2023-03-30T00:48:16.566Z,983.7880
2023-03-30T00:48:27.771Z,978.0220
2023-03-30T00:48:38.974Z,983.0630
2023-03-30T00:48:50.020Z,980.1760
2023-03-30T00:49:01.073Z,983.7880
2023-03-30T00:49:12.254Z,981.6180
2023-03-30T00:49:23.443Z,980.8960
2023-03-30T00:49:34.548Z,982.3400
2023-03-30T00:49:45.633Z,980.1760
2023-03-30T00:49:56.695Z,974.4530
2023-03-30T00:50:07.962Z,975.8770
2023-03-30T00:50:19.010Z,983.0630
2023-03-30T00:50:30.049Z,980.1760
2023-03-30T00:50:41.201Z,981.6180
2023-03-30T00:50:52.396Z,983.0630
2023-03-30T00:51:03.684Z,978.7390
2023-03-30T00:51:15.127Z,980.1760
2023-03-30T00:51:26.168Z,971.6160
2023-03-30T00:51:37.240Z,984.5130
2023-03-30T00:51:48.405Z,978.7390
2023-03-30T00:51:59.461Z,976.5910
2023-03-30T00:52:10.476Z,978.7390
2023-03-30T00:52:21.533Z,977.3060
2023-03-30T00:52:32.566Z,980.8960
2023-03-30T00:52:43.770Z,978.7390
2023-03-30T00:52:54.965Z,975.8770
2023-03-30T00:53:06.013Z,980.8960
2023-03-30T00:53:17.081Z,981.6180
2023-03-30T00:53:28.251Z,982.3400
2023-03-30T00:53:39.266Z,981.6180
2023-03-30T00:53:50.360Z,976.5910
2023-03-30T00:54:01.531Z,983.0630
2023-03-30T00:54:12.546Z,979.4570
2023-03-30T00:54:23.610Z,981.6180
2023-03-30T00:54:34.812Z,980.8960
2023-03-30T00:54:45.847Z,977.3060
2023-03-30T00:54:56.899Z,978.7390
2023-03-30T00:55:08.094Z,985.2400
2023-03-30T00:55:19.123Z,985.9680
2023-03-30T00:55:30.167Z,980.8960
2023-03-30T00:55:41.243Z,983.7880
2023-03-30T00:55:52.280Z,985.9680
2023-03-30T00:56:03.450Z,976.5910
2023-03-30T00:56:14.642Z,983.0630
2023-03-30T00:56:25.851Z,983.0630
2023-03-30T00:56:37.036Z,977.3060
2023-03-30T00:56:48.326Z,976.5910
2023-03-30T00:56:59.483Z,978.7390
2023-03-30T00:57:10.710Z,978.7390
2023-03-30T00:57:21.925Z,978.7390
2023-03-30T00:57:32.984Z,985.2400
2023-03-30T00:57:44.104Z,980.1760
2023-03-30T00:57:55.203Z,981.6180
2023-03-30T00:58:06.242Z,988.8890
2023-03-30T00:58:17.306Z,985.9680
2023-03-30T00:58:28.414Z,983.7880
2023-03-30T00:58:39.462Z,977.3060
2023-03-30T00:58:50.504Z,983.0630
2023-03-30T00:59:01.673Z,980.8960
2023-03-30T00:59:12.732Z,983.0630
2023-03-30T00:59:23.768Z,985.9680
2023-03-30T00:59:34.962Z,975.8770
2023-03-30T00:59:46.003Z,988.8890
2023-03-30T00:59:57.054Z,983.0630
2023-03-30T01:00:08.240Z,981.6180
2023-03-30T01:00:19.368Z,981.6180
2023-03-30T01:00:30.420Z,983.7880
2023-03-30T01:00:41.524Z,984.5130
2023-03-30T01:00:52.556Z,981.6180
2023-03-30T01:01:03.902Z,977.3060
2023-03-30T01:01:15.246Z,985.2400
2023-03-30T01:01:26.394Z,978.7390
2023-03-30T01:01:37.473Z,980.1760
2023-03-30T01:01:48.787Z,986.6960
2023-03-30T01:01:59.954Z,984.5130
2023-03-30T01:02:11.201Z,986.6960
2023-03-30T01:02:22.319Z,975.1640
2023-03-30T01:02:33.643Z,982.3400
2023-03-30T01:02:44.786Z,983.0630
2023-03-30T01:02:55.961Z,984.5130
2023-03-30T01:03:07.639Z,988.8890
2023-03-30T01:03:18.970Z,979.4570
2023-03-30T01:03:30.413Z,980.1760
2023-03-30T01:03:41.799Z,983.0630
2023-03-30T01:03:53.014Z,988.1570
2023-03-30T01:04:04.159Z,981.6180
2023-03-30T01:04:15.293Z,981.6180
2023-03-30T01:04:26.488Z,980.1760
2023-03-30T01:04:37.769Z,977.3060
2023-03-30T01:04:48.802Z,975.8770
2023-03-30T01:04:59.853Z,979.4570
2023-03-30T01:05:10.967Z,987.4260
2023-03-30T01:05:22.158Z,983.0630
2023-03-30T01:05:33.372Z,979.4570
2023-03-30T01:05:44.561Z,977.3060
2023-03-30T01:05:55.637Z,984.5130
2023-03-30T01:06:06.681Z,987.4260
2023-03-30T01:06:17.920Z,980.1760
2023-03-30T01:06:29.379Z,983.0630
2023-03-30T01:06:40.946Z,983.7880
2023-03-30T01:06:52.164Z,982.3400
2023-03-30T01:07:03.291Z,976.5910
2023-03-30T01:07:14.473Z,983.0630
2023-03-30T01:07:25.691Z,983.0630
2023-03-30T01:07:36.918Z,980.1760
2023-03-30T01:07:47.947Z,980.8960
2023-03-30T01:07:59.019Z,986.6960
2023-03-30T01:08:10.171Z,976.5910
2023-03-30T01:08:21.363Z,979.4570
2023-03-30T01:08:32.696Z,980.1760
2023-03-30T01:08:43.749Z,977.3060
2023-03-30T01:08:54.976Z,984.5130
2023-03-30T01:09:06.173Z,984.5130
2023-03-30T01:09:17.389Z,984.5130
2023-03-30T01:09:28.559Z,979.4570
2023-03-30T01:09:39.764Z,976.5910
2023-03-30T01:09:50.799Z,979.4570
2023-03-30T01:10:01.887Z,977.3060
2023-03-30T01:10:13.047Z,986.6960
2023-03-30T01:10:24.257Z,979.4570
2023-03-30T01:10:35.448Z,982.3400
2023-03-30T01:10:46.506Z,984.5130
2023-03-30T01:10:57.547Z,978.7390
2023-03-30T01:11:08.608Z,981.6180
2023-03-30T01:11:19.673Z,977.3060
2023-03-30T01:11:30.805Z,980.1760
2023-03-30T01:11:41.841Z,979.4570
2023-03-30T01:11:52.943Z,984.5130
2023-03-30T01:12:04.082Z,986.6960
2023-03-30T01:12:15.108Z,984.5130
2023-03-30T01:12:26.164Z,985.9680
2023-03-30T01:12:37.374Z,986.6960
2023-03-30T01:12:48.570Z,985.2400
2023-03-30T01:12:59.764Z,988.1570
2023-03-30T01:13:10.961Z,991.8280
2023-03-30T01:13:22.024Z,982.3400
2023-03-30T01:13:33.038Z,978.7390
2023-03-30T01:13:44.255Z,977.3060
2023-03-30T01:13:55.448Z,982.3400
2023-03-30T01:14:06.520Z,980.1760
2023-03-30T01:14:17.566Z,983.0630
2023-03-30T01:14:28.605Z,983.0630
2023-03-30T01:14:39.661Z,980.8960
2023-03-30T01:14:50.686Z,986.6960
2023-03-30T01:15:01.743Z,978.7390
2023-03-30T01:15:12.871Z,985.9680
2023-03-30T01:15:24.111Z,988.8890
2023-03-30T01:15:35.208Z,978.7390
2023-03-30T01:15:46.524Z,983.0630
2023-03-30T01:15:57.723Z,980.8960
2023-03-30T01:16:08.737Z,981.6180
2023-03-30T01:16:19.805Z,985.9680
2023-03-30T01:16:30.963Z,975.8770
2023-03-30T01:16:42.025Z,984.5130
2023-03-30T01:16:53.092Z,986.6960
2023-03-30T01:17:04.282Z,988.1570
2023-03-30T01:17:15.318Z,980.1760
2023-03-30T01:17:26.409Z,983.0630
2023-03-30T01:17:37.611Z,988.8890
2023-03-30T01:17:48.690Z,981.6180
2023-03-30T01:17:59.849Z,980.1760
2023-03-30T01:18:11.048Z,980.8960
2023-03-30T01:18:22.086Z,978.7390
2023-03-30T01:18:33.221Z,985.9680
2023-03-30T01:18:44.404Z,977.3060
2023-03-30T01:18:55.430Z,978.7390
2023-03-30T01:19:06.482Z,982.3400
2023-03-30T01:19:17.688Z,984.5130
2023-03-30T01:19:28.892Z,983.7880
2023-03-30T01:19:40.088Z,987.4260
2023-03-30T01:19:51.306Z,978.7390
2023-03-30T01:20:02.485Z,982.3400
2023-03-30T01:20:13.690Z,977.3060
2023-03-30T01:20:24.732Z,980.8960
2023-03-30T01:20:35.769Z,978.7390
2023-03-30T01:20:46.969Z,981.6180
2023-03-30T01:20:58.018Z,975.8770
2023-03-30T01:21:09.074Z,978.7390
2023-03-30T01:21:20.251Z,986.6960
2023-03-30T01:21:31.405Z,983.0630
2023-03-30T01:21:42.438Z,981.6180
2023-03-30T01:21:53.567Z,979.4570
2023-03-30T01:22:04.706Z,981.6180
2023-03-30T01:22:15.922Z,982.3400
2023-03-30T01:22:26.966Z,978.7390
2023-03-30T01:22:38.009Z,977.3060
2023-03-30T01:22:49.583Z,978.7390
2023-03-30T01:23:00.720Z,983.7880
2023-03-30T01:23:11.927Z,982.3400
2023-03-30T01:23:23.145Z,983.0630
2023-03-30T01:23:34.207Z,979.4570
2023-03-30T01:23:45.264Z,986.6960
2023-03-30T01:23:56.408Z,978.7390
2023-03-30T01:24:07.415Z,981.6180
2023-03-30T01:24:18.477Z,984.5130
2023-03-30T01:24:29.685Z,985.2400
2023-03-30T01:24:40.879Z,985.2400
2023-03-30T01:24:51.988Z,983.0630
2023-03-30T01:25:03.086Z,985.9680
2023-03-30T01:25:14.155Z,980.8960
2023-03-30T01:25:25.379Z,977.3060
2023-03-30T01:25:36.411Z,977.3060
2023-03-30T01:25:47.447Z,975.1640
2023-03-30T01:25:58.646Z,979.4570
2023-03-30T01:26:09.844Z,984.5130
2023-03-30T01:26:20.926Z,977.3060
2023-03-30T01:26:31.961Z,982.3400
2023-03-30T01:26:43.116Z,982.3400
2023-03-30T01:26:54.322Z,983.0630
2023-03-30T01:27:05.564Z,982.3400
2023-03-30T01:27:16.757Z,975.8770
2023-03-30T01:27:27.926Z,986.6960
2023-03-30T01:27:38.971Z,981.6180
2023-03-30T01:27:50.032Z,975.1640
2023-03-30T01:28:01.216Z,975.8770
2023-03-30T01:28:12.404Z,976.5910
2023-03-30T01:28:23.454Z,980.8960
2023-03-30T01:28:34.496Z,984.5130
2023-03-30T01:28:45.684Z,980.8960
2023-03-30T01:28:56.877Z,980.1760
2023-03-30T01:29:08.088Z,975.8770
2023-03-30T01:29:19.119Z,984.5130
2023-03-30T01:29:30.172Z,977.3060
2023-03-30T01:29:41.199Z,975.8770
2023-03-30T01:29:52.243Z,974.4530
2023-03-30T01:30:03.447Z,982.3400
2023-03-30T01:30:14.651Z,973.7420
2023-03-30T01:30:25.851Z,981.6180
2023-03-30T01:30:36.895Z,971.6160
2023-03-30T01:30:47.943Z,975.8770
2023-03-30T01:30:59.148Z,975.8770
2023-03-30T01:31:10.378Z,975.8770
2023-03-30T01:31:21.547Z,980.8960
2023-03-30T01:31:32.742Z,972.3230
2023-03-30T01:31:44.016Z,980.1760
2023-03-30T01:31:55.135Z,974.4530
2023-03-30T01:32:06.352Z,976.5910
2023-03-30T01:32:17.541Z,978.7390
2023-03-30T01:32:28.785Z,977.3060
2023-03-30T01:32:39.847Z,972.3230
2023-03-30T01:32:50.877Z,975.8770
2023-03-30T01:33:01.932Z,972.3230
2023-03-30T01:33:13.004Z,980.1760
2023-03-30T01:33:24.084Z,982.3400
2023-03-30T01:33:35.288Z,974.4530
2023-03-30T01:33:46.330Z,971.6160
2023-03-30T01:33:57.368Z,975.8770
2023-03-30T01:34:08.413Z,978.7390
2023-03-30T01:34:19.457Z,970.2030
2023-03-30T01:34:30.644Z,970.9090
2023-03-30T01:34:41.846Z,975.8770
2023-03-30T01:34:52.923Z,970.2030
2023-03-30T01:35:04.007Z,971.6160
2023-03-30T01:35:15.144Z,980.8960
2023-03-30T01:35:26.423Z,978.7390
2023-03-30T01:35:37.659Z,973.0320
2023-03-30T01:35:49.118Z,973.0320
2023-03-30T01:36:00.351Z,970.9090
2023-03-30T01:36:11.823Z,973.0320
2023-03-30T01:36:23.000Z,975.8770
2023-03-30T01:36:34.052Z,972.3230
2023-03-30T01:36:45.078Z,973.0320
2023-03-30T01:36:56.118Z,973.0320
2023-03-30T01:37:07.158Z,970.2030
2023-03-30T01:37:18.319Z,972.3230
2023-03-30T01:37:29.517Z,974.4530
2023-03-30T01:37:40.567Z,976.5910
2023-03-30T01:37:51.602Z,971.6160
2023-03-30T01:38:02.648Z,975.1640
2023-03-30T01:38:13.700Z,977.3060
2023-03-30T01:38:24.891Z,968.7950
2023-03-30T01:38:35.919Z,972.3230
2023-03-30T01:38:46.975Z,973.7420
2023-03-30T01:38:58.157Z,967.3910
2023-03-30T01:39:09.225Z,973.7420
2023-03-30T01:39:20.348Z,978.7390
2023-03-30T01:39:31.444Z,968.0930
2023-03-30T01:39:42.639Z,971.6160
2023-03-30T01:39:53.848Z,967.3910
2023-03-30T01:40:05.046Z,974.4530
2023-03-30T01:40:16.079Z,967.3910
2023-03-30T01:40:27.115Z,970.2030
2023-03-30T01:40:38.329Z,967.3910
2023-03-30T01:40:49.526Z,975.1640
2023-03-30T01:41:00.788Z,973.0320
2023-03-30T01:41:11.875Z,967.3910
2023-03-30T01:41:22.904Z,970.2030
2023-03-30T01:41:34.015Z,969.4990
2023-03-30T01:41:45.201Z,970.9090
2023-03-30T01:41:56.419Z,968.7950
2023-03-30T01:42:07.477Z,966.6910
2023-03-30T01:42:18.548Z,973.0320
2023-03-30T01:42:29.605Z,971.6160
2023-03-30T01:42:40.648Z,973.7420
2023-03-30T01:42:51.766Z,967.3910
2023-03-30T01:43:02.972Z,970.9090
2023-03-30T01:43:14.007Z,970.2030
2023-03-30T01:43:25.044Z,972.3230
2023-03-30T01:43:36.094Z,968.0930
2023-03-30T01:43:47.133Z,970.9090
2023-03-30T01:43:58.324Z,965.2930
2023-03-30T01:44:09.438Z,965.9910
2023-03-30T01:44:20.510Z,972.3230
2023-03-30T01:44:31.539Z,970.2030
2023-03-30T01:44:42.584Z,972.3230
2023-03-30T01:44:53.678Z,967.3910
2023-03-30T01:45:04.888Z,961.8160
2023-03-30T01:45:16.081Z,963.8990
2023-03-30T01:45:27.279Z,968.7950
2023-03-30T01:45:38.488Z,964.5950
2023-03-30T01:45:49.528Z,965.2930
2023-03-30T01:46:00.559Z,966.6910
2023-03-30T01:46:11.799Z,966.6910
2023-03-30T01:46:23.004Z,970.2030
2023-03-30T01:46:34.085Z,963.2030
2023-03-30T01:46:45.381Z,964.5950
2023-03-30T01:46:56.642Z,961.8160
2023-03-30T01:47:07.808Z,963.2030
2023-03-30T01:47:18.839Z,970.2030
2023-03-30T01:47:29.944Z,961.8160
2023-03-30T01:47:41.081Z,964.5950
2023-03-30T01:47:52.177Z,964.5950
2023-03-30T01:48:03.259Z,961.8160
2023-03-30T01:48:14.329Z,961.1230
2023-03-30T01:48:25.524Z,967.3910
2023-03-30T01:48:36.552Z,964.5950
2023-03-30T01:48:47.598Z,968.0930
2023-03-30T01:48:58.652Z,962.5090
2023-03-30T01:49:09.701Z,970.2030
2023-03-30T01:49:20.885Z,965.9910
2023-03-30T01:49:31.941Z,961.8160
2023-03-30T01:49:42.965Z,970.2030
2023-03-30T01:49:54.167Z,963.2030
2023-03-30T01:50:05.201Z,963.2030
2023-03-30T01:50:16.241Z,960.4320
2023-03-30T01:50:27.437Z,964.5950
2023-03-30T01:50:38.649Z,965.9910
2023-03-30T01:50:49.838Z,965.2930
2023-03-30T01:51:01.298Z,954.2530
2023-03-30T01:51:12.570Z,957.6760
2023-03-30T01:51:23.764Z,951.5320
2023-03-30T01:51:34.806Z,957.6760
2023-03-30T01:51:45.848Z,961.8160
2023-03-30T01:51:56.932Z,962.5090
2023-03-30T01:52:08.036Z,956.3040
2023-03-30T01:52:19.053Z,959.0520
2023-03-30T01:52:30.098Z,957.6760
2023-03-30T01:52:41.256Z,958.3630
2023-03-30T01:52:52.419Z,959.7410
2023-03-30T01:53:03.598Z,961.1230
2023-03-30T01:53:14.724Z,959.7410
2023-03-30T01:53:25.775Z,952.2110
2023-03-30T01:53:36.888Z,963.2030
2023-03-30T01:53:48.088Z,957.6760
2023-03-30T01:53:59.133Z,958.3630
2023-03-30T01:54:10.164Z,953.5710
2023-03-30T01:54:21.199Z,959.0520
2023-03-30T01:54:32.236Z,959.7410
2023-03-30T01:54:43.463Z,956.9890
2023-03-30T01:54:54.644Z,952.8910
2023-03-30T01:55:05.845Z,965.9910
2023-03-30T01:55:17.044Z,958.3630
2023-03-30T01:55:28.244Z,954.9360
2023-03-30T01:55:39.544Z,956.9890
2023-03-30T01:55:50.646Z,960.4320
2023-03-30T01:56:01.700Z,956.9890
2023-03-30T01:56:12.734Z,952.8910
2023-03-30T01:56:23.919Z,953.5710
2023-03-30T01:56:34.976Z,953.5710
2023-03-30T01:56:46.055Z,958.3630
2023-03-30T01:56:57.217Z,955.6190
2023-03-30T01:57:08.519Z,950.8550
2023-03-30T01:57:19.643Z,954.2530
2023-03-30T01:57:30.799Z,953.5710
2023-03-30T01:57:42.000Z,952.8910
2023-03-30T01:57:53.206Z,944.7980
2023-03-30T01:58:04.410Z,947.4800
2023-03-30T01:58:15.598Z,948.1530
2023-03-30T01:58:26.802Z,950.8550
2023-03-30T01:58:37.839Z,949.5020
2023-03-30T01:58:48.882Z,952.8910
2023-03-30T01:59:00.132Z,947.4800
2023-03-30T01:59:11.158Z,956.3040
2023-03-30T01:59:22.181Z,956.3040
2023-03-30T01:59:33.376Z,948.8270
2023-03-30T01:59:44.439Z,950.1780
2023-03-30T01:59:55.488Z,946.8090
2023-03-30T02:00:06.640Z,950.1780
2023-03-30T02:00:17.697Z,949.5020
2023-03-30T02:00:28.722Z,945.4670
2023-03-30T02:00:39.849Z,951.5320
2023-03-30T02:00:50.908Z,947.4800
2023-03-30T02:01:02.316Z,950.1780
2023-03-30T02:01:13.784Z,950.1780
2023-03-30T02:01:24.882Z,949.5020
2023-03-30T02:01:35.969Z,944.1300
2023-03-30T02:01:47.173Z,944.1300
2023-03-30T02:01:58.239Z,950.1780
2023-03-30T02:02:09.330Z,941.4670
2023-03-30T02:02:20.401Z,946.8090
2023-03-30T02:02:31.661Z,944.1300
2023-03-30T02:02:42.883Z,944.1300
2023-03-30T02:02:54.058Z,940.8030
2023-03-30T02:03:05.171Z,947.4800
2023-03-30T02:03:16.482Z,942.7970
2023-03-30T02:03:27.709Z,946.1370
2023-03-30T02:03:38.967Z,940.1410
2023-03-30T02:03:50.435Z,941.4670
2023-03-30T02:04:01.594Z,935.5290
2023-03-30T02:04:12.668Z,944.7980
2023-03-30T02:04:23.742Z,942.7970
2023-03-30T02:04:34.804Z,941.4670
2023-03-30T02:04:46.008Z,943.4630
2023-03-30T02:04:57.203Z,938.8190
2023-03-30T02:05:08.399Z,940.1410
2023-03-30T02:05:19.607Z,941.4670
2023-03-30T02:05:30.800Z,941.4670
2023-03-30T02:05:42.027Z,934.8740
2023-03-30T02:05:53.198Z,932.2630
2023-03-30T02:06:04.408Z,932.2630
2023-03-30T02:06:15.428Z,938.1590
2023-03-30T02:06:26.484Z,935.5290
2023-03-30T02:06:37.700Z,940.8030
2023-03-30T02:06:48.728Z,930.9620
2023-03-30T02:06:59.759Z,936.1850
2023-03-30T02:07:10.828Z,931.6120
2023-03-30T02:07:21.893Z,940.1410
2023-03-30T02:07:33.050Z,936.1850
2023-03-30T02:07:44.247Z,932.9140
2023-03-30T02:07:55.447Z,938.8190
2023-03-30T02:08:06.643Z,930.3140
2023-03-30T02:08:17.683Z,934.8740
2023-03-30T02:08:28.718Z,930.3140
2023-03-30T02:08:39.941Z,927.0830
2023-03-30T02:08:51.120Z,929.0190
2023-03-30T02:09:02.168Z,934.8740
2023-03-30T02:09:13.198Z,931.6120
2023-03-30T02:09:24.260Z,933.5660
2023-03-30T02:09:35.290Z,930.3140
2023-03-30T02:09:46.330Z,926.4400
2023-03-30T02:09:57.386Z,932.2630
2023-03-30T02:10:08.571Z,927.7280
2023-03-30T02:10:19.765Z,927.0830
2023-03-30T02:10:30.820Z,930.9620
2023-03-30T02:10:41.968Z,923.8750
2023-03-30T02:10:53.049Z,932.9140
2023-03-30T02:11:04.383Z,932.2630